createdAt,value
2023-05-20T00:00:51.090Z,1.73
2023-05-20T00:03:20.628Z,1.70
2023-05-20T00:05:48.259Z,1.67
2023-05-20T00:08:16.095Z,1.67
2023-05-20T00:10:43.542Z,1.67
2023-05-20T00:13:12.617Z,1.83
2023-05-20T00:15:40.150Z,1.80
2023-05-20T00:18:07.710Z,1.60
2023-05-20T00:20:35.265Z,2.07
2023-05-20T00:23:02.876Z,1.97
2023-05-20T00:25:31.824Z,2.03
2023-05-20T00:27:59.513Z,2.00
2023-05-20T00:30:28.815Z,1.80
2023-05-20T00:32:56.339Z,2.20
2023-05-20T00:35:24.248Z,1.90
2023-05-20T00:37:51.728Z,1.70
2023-05-20T00:40:19.341Z,1.60
2023-05-20T00:42:46.787Z,2.00
2023-05-20T00:45:14.250Z,2.00
2023-05-20T00:47:43.383Z,2.00
2023-05-20T00:50:11.378Z,1.90
2023-05-20T00:52:39.471Z,1.80
2023-05-20T00:55:07.399Z,2.00
2023-05-20T00:57:35.133Z,2.00
2023-05-20T01:00:02.704Z,2.00
2023-05-20T01:02:30.539Z,1.90
2023-05-20T01:04:59.677Z,1.90
2023-05-20T01:07:27.161Z,1.97
2023-05-20T01:09:56.157Z,1.80
2023-05-20T01:12:25.582Z,1.80
2023-05-20T01:14:56.893Z,1.83
2023-05-20T01:17:26.894Z,1.93
2023-05-20T01:19:56.173Z,1.70
2023-05-20T01:22:27.319Z,1.97
2023-05-20T01:24:54.825Z,1.80
2023-05-20T01:27:23.985Z,1.70
2023-05-20T01:29:52.076Z,1.57
2023-05-20T01:32:21.364Z,2.57
2023-05-20T01:34:49.591Z,1.80
2023-05-20T01:37:17.813Z,2.00
2023-05-20T01:39:47.477Z,1.80
2023-05-20T01:42:16.180Z,1.93
2023-05-20T01:44:44.068Z,1.97
2023-05-20T01:47:11.613Z,1.90
2023-05-20T01:49:39.034Z,2.10
2023-05-20T01:52:06.777Z,2.07
2023-05-20T01:54:34.263Z,1.93
2023-05-20T01:57:03.160Z,1.97
2023-05-20T01:59:30.951Z,2.00
2023-05-20T02:01:58.458Z,1.90
2023-05-20T02:04:26.017Z,2.10
2023-05-20T02:06:53.570Z,2.10
2023-05-20T02:09:21.052Z,1.93
2023-05-20T02:11:48.613Z,2.10
2023-05-20T02:14:17.445Z,2.10
2023-05-20T02:16:45.044Z,1.87
2023-05-20T02:19:13.073Z,1.70
2023-05-20T02:21:41.140Z,2.13
2023-05-20T02:24:08.787Z,2.13
2023-05-20T02:26:36.291Z,2.33
2023-05-20T02:29:03.757Z,2.27
2023-05-20T02:31:32.613Z,1.80
2023-05-20T02:34:00.138Z,1.77
2023-05-20T02:36:28.243Z,2.50
2023-05-20T02:38:56.869Z,2.10
2023-05-20T02:41:24.384Z,2.00
2023-05-20T02:43:51.829Z,2.17
2023-05-20T02:46:19.865Z,2.13
2023-05-20T02:48:48.777Z,2.40
2023-05-20T02:51:16.551Z,2.07
2023-05-20T02:53:43.989Z,2.00
2023-05-20T02:56:11.865Z,2.10
2023-05-20T02:58:39.338Z,1.83
2023-05-20T03:01:07.126Z,2.30
2023-05-20T03:03:34.819Z,2.20
2023-05-20T03:06:03.723Z,1.70
2023-05-20T03:08:31.229Z,2.23
2023-05-20T03:10:58.761Z,2.10
2023-05-20T03:13:26.252Z,1.73
2023-05-20T03:15:54.115Z,2.17
2023-05-20T03:18:21.672Z,1.90
2023-05-20T03:20:49.150Z,2.00
2023-05-20T03:23:17.931Z,2.23
2023-05-20T03:25:46.202Z,2.10
2023-05-20T03:28:13.622Z,2.17
2023-05-20T03:30:41.070Z,2.00
2023-05-20T03:33:08.563Z,2.13
2023-05-20T03:35:36.382Z,2.17
2023-05-20T03:38:04.444Z,2.20
2023-05-20T03:40:33.332Z,2.37
2023-05-20T03:43:01.094Z,2.27
2023-05-20T03:45:28.574Z,2.10
2023-05-20T03:47:56.330Z,2.17
2023-05-20T03:50:23.891Z,2.27
2023-05-20T03:52:51.308Z,2.00
2023-05-20T03:55:20.492Z,2.23
2023-05-20T03:57:49.341Z,2.00
2023-05-20T04:00:17.502Z,2.33
2023-05-20T04:02:45.024Z,2.30
2023-05-20T04:05:12.742Z,2.33
2023-05-20T04:07:40.394Z,2.50
2023-05-20T04:10:08.517Z,2.33
2023-05-20T04:12:38.140Z,2.60
2023-05-20T04:15:07.782Z,2.30
2023-05-20T04:17:37.671Z,2.00
2023-05-20T04:20:07.189Z,2.27
2023-05-20T04:22:34.620Z,2.53
2023-05-20T04:25:03.602Z,2.10
2023-05-20T04:27:31.451Z,2.47
2023-05-20T04:29:59.037Z,2.40
2023-05-20T04:32:28.079Z,2.53
2023-05-20T04:34:57.358Z,2.47
2023-05-20T04:37:25.232Z,2.20
2023-05-20T04:39:52.684Z,2.20
2023-05-20T04:42:21.578Z,2.40
2023-05-20T04:44:49.208Z,2.30
2023-05-20T04:47:16.876Z,2.47
2023-05-20T04:49:45.764Z,2.60
2023-05-20T04:52:13.277Z,2.37
2023-05-20T04:54:41.504Z,2.30
2023-05-20T04:57:08.968Z,2.30
2023-05-20T04:59:36.542Z,2.60
2023-05-20T05:02:04.003Z,2.47
2023-05-20T05:04:31.495Z,2.17
2023-05-20T05:07:00.396Z,2.63
2023-05-20T05:09:27.842Z,2.57
2023-05-20T05:11:55.578Z,2.33
2023-05-20T05:14:23.623Z,3.00
2023-05-20T05:16:52.397Z,2.40
2023-05-20T05:19:20.954Z,2.63
2023-05-20T05:21:48.901Z,2.77
2023-05-20T05:24:17.813Z,2.40
2023-05-20T05:26:45.366Z,2.37
2023-05-20T05:29:12.811Z,2.77
2023-05-20T05:31:40.462Z,2.90
2023-05-20T05:34:08.017Z,2.73
2023-05-20T05:36:35.658Z,2.80
2023-05-20T05:39:03.362Z,2.83
2023-05-20T05:41:32.602Z,2.93
2023-05-20T05:44:00.369Z,2.70
2023-05-20T05:46:27.898Z,2.63
2023-05-20T05:48:55.653Z,2.93
2023-05-20T05:51:24.827Z,2.93
2023-05-20T05:53:52.269Z,3.03
2023-05-20T05:56:19.730Z,3.10
2023-05-20T05:58:48.724Z,2.93
2023-05-20T06:01:16.295Z,3.20
2023-05-20T06:03:43.957Z,2.80
2023-05-20T06:06:11.697Z,2.73
2023-05-20T06:08:39.312Z,3.00
2023-05-20T06:11:06.853Z,2.80
2023-05-20T06:13:36.816Z,2.40
2023-05-20T06:16:05.953Z,3.03
2023-05-20T06:18:33.488Z,2.53
2023-05-20T06:21:01.019Z,2.80
2023-05-20T06:23:28.432Z,3.00
2023-05-20T06:25:59.011Z,2.80
2023-05-20T06:28:26.599Z,2.80
2023-05-20T06:30:55.342Z,2.90
2023-05-20T06:33:26.663Z,3.17
2023-05-20T06:35:54.573Z,2.67
2023-05-20T06:38:22.146Z,3.10
2023-05-20T06:40:50.022Z,2.80
2023-05-20T06:43:17.718Z,3.13
2023-05-20T06:45:45.413Z,2.63
2023-05-20T06:48:12.949Z,2.53
2023-05-20T06:50:41.876Z,2.80
2023-05-20T06:53:10.283Z,2.93
2023-05-20T06:55:38.283Z,2.80
2023-05-20T06:58:06.117Z,3.00
2023-05-20T07:00:33.653Z,2.90
2023-05-20T07:03:01.230Z,2.40
2023-05-20T07:05:28.979Z,3.27
2023-05-20T07:07:57.801Z,2.63
2023-05-20T07:10:25.313Z,2.70
2023-05-20T07:12:52.843Z,2.90
2023-05-20T07:15:20.381Z,2.90
2023-05-20T07:17:48.000Z,2.90
2023-05-20T07:20:15.730Z,2.90
2023-05-20T07:22:44.029Z,2.87
2023-05-20T07:25:13.030Z,3.07
2023-05-20T07:27:40.526Z,2.87
2023-05-20T07:30:08.568Z,2.80
2023-05-20T07:32:36.119Z,3.20
2023-05-20T07:35:03.596Z,2.87
2023-05-20T07:37:31.553Z,2.93
2023-05-20T07:39:59.035Z,2.70
2023-05-20T07:42:27.929Z,2.60
2023-05-20T07:44:55.642Z,3.03
2023-05-20T07:47:23.298Z,2.60
2023-05-20T07:49:50.787Z,2.83
2023-05-20T07:52:18.353Z,2.70
2023-05-20T07:54:45.817Z,2.80
2023-05-20T07:57:13.260Z,2.80
2023-05-20T07:59:42.010Z,3.00
2023-05-20T08:02:09.508Z,3.00
2023-05-20T08:04:37.611Z,3.00
2023-05-20T08:07:05.348Z,2.93
2023-05-20T08:09:33.028Z,2.93
2023-05-20T08:12:00.615Z,3.00
2023-05-20T08:14:28.125Z,2.77
2023-05-20T08:16:57.030Z,2.60
2023-05-20T08:19:24.718Z,3.00
2023-05-20T08:21:52.472Z,3.10
2023-05-20T08:24:19.934Z,3.00
2023-05-20T08:26:47.404Z,2.60
2023-05-20T08:29:14.868Z,3.20
2023-05-20T08:31:42.397Z,3.10
2023-05-20T08:34:11.180Z,2.93
2023-05-20T08:36:39.907Z,3.10
2023-05-20T08:39:07.357Z,2.93
2023-05-20T08:41:34.846Z,3.13
2023-05-20T08:44:02.474Z,2.60
2023-05-20T08:46:30.029Z,3.20
2023-05-20T08:48:59.289Z,2.83
2023-05-20T08:51:28.778Z,2.90
2023-05-20T08:53:56.404Z,2.80
2023-05-20T08:56:28.190Z,3.30
2023-05-20T08:58:57.618Z,2.90
2023-05-20T09:01:25.212Z,3.10
2023-05-20T09:03:52.917Z,3.13
2023-05-20T09:06:20.693Z,3.23
2023-05-20T09:08:51.821Z,2.40
2023-05-20T09:11:19.281Z,2.80
2023-05-20T09:13:46.741Z,2.93
2023-05-20T09:16:14.702Z,2.87
2023-05-20T09:18:43.504Z,2.90
2023-05-20T09:21:11.734Z,2.80
2023-05-20T09:23:39.632Z,3.10
2023-05-20T09:26:08.604Z,2.90
2023-05-20T09:28:38.312Z,3.00
2023-05-20T09:31:06.557Z,3.10
2023-05-20T09:33:35.691Z,2.70
2023-05-20T09:36:04.461Z,2.90
2023-05-20T09:38:38.041Z,2.70
2023-05-20T09:41:08.117Z,3.17
2023-05-20T09:43:37.383Z,3.27
2023-05-20T09:46:05.582Z,3.53
2023-05-20T09:48:34.045Z,2.80
2023-05-20T09:51:02.710Z,7.20
2023-05-20T09:53:30.187Z,2.70
2023-05-20T09:55:57.690Z,3.00
2023-05-20T09:58:25.236Z,2.80
2023-05-20T10:00:54.845Z,2.97
2023-05-20T10:03:23.493Z,2.97
2023-05-20T10:05:58.422Z,2.90
2023-05-20T10:08:49.837Z,2.80
2023-05-20T10:11:21.807Z,3.20
2023-05-20T10:13:59.451Z,3.07
2023-05-20T10:16:35.387Z,3.13
2023-05-20T10:19:07.430Z,2.83
2023-05-20T10:21:34.977Z,3.10
2023-05-20T10:24:09.215Z,2.93
2023-05-20T10:26:37.613Z,3.03
2023-05-20T10:29:15.456Z,3.00
2023-05-20T10:31:47.062Z,3.10
2023-05-20T10:34:16.203Z,2.93
2023-05-20T10:36:46.427Z,3.40
2023-05-20T10:39:16.510Z,3.07
2023-05-20T10:41:44.177Z,3.40
2023-05-20T10:44:11.718Z,3.17
2023-05-20T10:47:00.004Z,3.33
2023-05-20T10:49:34.411Z,3.70
2023-05-20T10:52:01.873Z,3.60
2023-05-20T10:54:30.059Z,3.47
2023-05-20T10:56:57.519Z,3.20
2023-05-20T10:59:25.035Z,3.83
2023-05-20T11:01:52.704Z,3.10
2023-05-20T11:04:20.620Z,3.43
2023-05-20T11:06:53.962Z,3.50
2023-05-20T11:09:21.744Z,3.43
2023-05-20T11:11:49.564Z,3.20
2023-05-20T11:14:18.254Z,3.77
2023-05-20T11:16:46.726Z,3.50
2023-05-20T11:19:15.723Z,3.37
2023-05-20T11:21:46.562Z,3.67
2023-05-20T11:24:15.456Z,3.23
2023-05-20T11:26:42.963Z,3.57
2023-05-20T11:29:10.542Z,3.37
2023-05-20T11:31:38.877Z,3.30
2023-05-20T11:34:06.384Z,3.70
2023-05-20T11:36:33.899Z,3.43
2023-05-20T11:39:01.721Z,3.10
2023-05-20T11:41:30.605Z,3.63
2023-05-20T11:43:59.023Z,3.63
2023-05-20T11:46:26.656Z,3.50
2023-05-20T11:48:54.791Z,3.80
2023-05-20T11:51:26.137Z,3.80
2023-05-20T11:53:53.626Z,3.50
2023-05-20T11:56:22.614Z,3.80
2023-05-20T11:58:51.636Z,3.73
2023-05-20T12:01:22.928Z,4.00
2023-05-20T12:03:51.284Z,3.83
2023-05-20T12:06:19.050Z,3.73
2023-05-20T12:08:47.355Z,3.67
2023-05-20T12:11:15.004Z,3.67
2023-05-20T12:13:42.639Z,3.80
2023-05-20T12:16:11.724Z,3.40
2023-05-20T12:18:39.227Z,3.97
2023-05-20T12:21:06.880Z,3.60
2023-05-20T12:23:34.411Z,4.07
2023-05-20T12:26:02.161Z,3.60
2023-05-20T12:28:29.641Z,3.90
2023-05-20T12:30:57.050Z,4.33
2023-05-20T12:33:25.914Z,3.50
2023-05-20T12:35:53.424Z,3.87
2023-05-20T12:38:20.906Z,3.93
2023-05-20T12:40:48.473Z,4.13
2023-05-20T12:43:15.889Z,3.90
2023-05-20T12:45:43.360Z,3.70
2023-05-20T12:48:11.109Z,3.70
2023-05-20T12:50:39.965Z,3.63
2023-05-20T12:53:07.468Z,3.83
2023-05-20T12:55:34.962Z,4.27
2023-05-20T12:58:02.752Z,3.53
2023-05-20T13:00:30.190Z,3.63
2023-05-20T13:02:57.721Z,3.87
2023-05-20T13:05:25.377Z,3.60
2023-05-20T13:07:54.189Z,3.20
2023-05-20T13:10:21.807Z,3.60
2023-05-20T13:12:49.327Z,3.30
2023-05-20T13:15:16.818Z,3.70
2023-05-20T13:17:44.896Z,3.93
2023-05-20T13:20:13.026Z,3.57
2023-05-20T13:22:40.531Z,3.63
2023-05-20T13:25:10.094Z,4.03
2023-05-20T13:27:37.529Z,3.30
2023-05-20T13:30:06.264Z,3.40
2023-05-20T13:32:33.838Z,3.67
2023-05-20T13:35:01.366Z,3.87
2023-05-20T13:37:28.901Z,3.93
2023-05-20T13:39:56.365Z,3.60
2023-05-20T13:42:25.180Z,3.50
2023-05-20T13:44:52.731Z,3.77
2023-05-20T13:47:20.302Z,3.90
2023-05-20T13:49:47.745Z,3.50
2023-05-20T13:52:15.170Z,3.67
2023-05-20T13:54:42.985Z,3.57
2023-05-20T13:57:10.583Z,3.60
2023-05-20T13:59:39.787Z,3.87
2023-05-20T14:02:08.031Z,4.00
2023-05-20T14:04:38.148Z,3.93
2023-05-20T14:07:07.713Z,3.80
2023-05-20T14:09:36.663Z,3.63
2023-05-20T14:12:05.254Z,3.60
2023-05-20T14:14:32.964Z,3.87
2023-05-20T14:17:01.912Z,4.00
2023-05-20T14:19:29.978Z,3.60
2023-05-20T14:21:58.874Z,3.40
2023-05-20T14:24:26.353Z,3.90
2023-05-20T14:26:53.901Z,3.60
2023-05-20T14:29:21.354Z,3.80
2023-05-20T14:31:48.938Z,3.40
2023-05-20T14:34:17.901Z,3.80
2023-05-20T14:36:45.410Z,3.80
2023-05-20T14:39:13.309Z,3.40
2023-05-20T14:41:40.940Z,3.47
2023-05-20T14:44:08.416Z,3.80
2023-05-20T14:46:36.007Z,3.90
2023-05-20T14:49:03.552Z,3.60
2023-05-20T14:51:32.565Z,4.23
2023-05-20T14:54:00.034Z,3.50
2023-05-20T14:56:27.768Z,3.70
2023-05-20T14:58:55.440Z,3.90
2023-05-20T15:01:22.932Z,3.50
2023-05-20T15:03:50.512Z,4.20
2023-05-20T15:06:18.361Z,3.50
2023-05-20T15:08:47.538Z,3.97
2023-05-20T15:11:15.047Z,3.77
2023-05-20T15:13:42.637Z,3.77
2023-05-20T15:16:10.528Z,3.40
2023-05-20T15:18:38.159Z,3.73
2023-05-20T15:21:05.902Z,3.80
2023-05-20T15:23:33.331Z,3.60
2023-05-20T15:26:02.181Z,3.70
2023-05-20T15:28:29.658Z,3.67
2023-05-20T15:30:57.702Z,4.03
2023-05-20T15:33:25.442Z,3.70
2023-05-20T15:35:52.986Z,4.20
2023-05-20T15:38:20.503Z,3.97
2023-05-20T15:40:50.311Z,3.97
2023-05-20T15:43:19.524Z,3.93
2023-05-20T15:45:48.111Z,4.40
2023-05-20T15:48:16.087Z,3.83
2023-05-20T15:50:43.692Z,3.47
2023-05-20T15:53:11.156Z,3.60
2023-05-20T15:55:38.771Z,3.63
2023-05-20T15:58:06.356Z,3.53
2023-05-20T16:00:35.518Z,3.37
2023-05-20T16:03:03.158Z,3.60
2023-05-20T16:05:30.818Z,3.80
2023-05-20T16:07:58.250Z,4.20
2023-05-20T16:10:27.499Z,4.50
2023-05-20T16:12:55.038Z,3.53
2023-05-20T16:15:22.525Z,3.40
2023-05-20T16:17:51.803Z,3.50
2023-05-20T16:20:19.488Z,3.60
2023-05-20T16:22:47.193Z,3.70
2023-05-20T16:25:14.845Z,3.87
2023-05-20T16:27:42.404Z,4.10
2023-05-20T16:30:10.957Z,3.80
2023-05-20T16:32:38.565Z,3.60
2023-05-20T16:35:08.311Z,3.80
2023-05-20T16:37:35.771Z,3.80
2023-05-20T16:40:04.183Z,4.00
2023-05-20T16:42:31.745Z,3.80
2023-05-20T16:44:59.187Z,3.80
2023-05-20T16:47:26.701Z,3.73
2023-05-20T16:49:54.481Z,3.97
2023-05-20T16:52:23.428Z,3.83
2023-05-20T16:54:52.318Z,5.10
2023-05-20T16:57:19.863Z,4.03
2023-05-20T16:59:47.333Z,3.90
2023-05-20T17:02:14.881Z,3.87
2023-05-20T17:04:42.436Z,3.47
2023-05-20T17:07:11.334Z,4.20
2023-05-20T17:09:40.181Z,4.30
2023-05-20T17:12:08.228Z,3.97
2023-05-20T17:14:35.838Z,4.30
2023-05-20T17:17:03.503Z,4.90
2023-05-20T17:19:31.016Z,5.10
2023-05-20T17:21:58.508Z,4.30
2023-05-20T17:24:26.002Z,4.40
2023-05-20T17:26:54.984Z,4.47
2023-05-20T17:29:22.499Z,4.60
2023-05-20T17:31:50.009Z,4.50
2023-05-20T17:34:17.627Z,4.20
2023-05-20T17:36:45.180Z,4.93
2023-05-20T17:39:13.684Z,4.40
2023-05-20T17:41:43.414Z,3.70
2023-05-20T17:44:12.446Z,3.80
2023-05-20T17:46:40.186Z,4.20
2023-05-20T17:49:07.748Z,3.90
2023-05-20T17:51:35.450Z,4.10
2023-05-20T17:54:02.949Z,4.20
2023-05-20T17:56:30.555Z,3.90
2023-05-20T17:58:58.098Z,6.30
2023-05-20T18:01:27.055Z,4.07
2023-05-20T18:03:54.629Z,5.50
2023-05-20T18:06:22.231Z,4.80
2023-05-20T18:08:49.708Z,4.13
2023-05-20T18:11:17.185Z,4.50
2023-05-20T18:13:44.630Z,4.30
2023-05-20T18:16:12.324Z,4.57
2023-05-20T18:18:41.382Z,4.53
2023-05-20T18:21:09.950Z,4.10
2023-05-20T18:23:37.460Z,3.90
2023-05-20T18:26:06.956Z,4.37
2023-05-20T18:28:34.636Z,4.13
2023-05-20T18:31:02.050Z,4.40
2023-05-20T18:33:29.822Z,4.27
2023-05-20T18:35:58.759Z,4.80
2023-05-20T18:38:26.453Z,4.13
2023-05-20T18:40:53.921Z,4.27
2023-05-20T18:43:21.440Z,4.10
2023-05-20T18:45:48.976Z,4.33
2023-05-20T18:48:25.627Z,4.67
2023-05-20T18:50:53.913Z,4.37
2023-05-20T18:53:22.982Z,4.90
2023-05-20T18:55:50.470Z,4.60
2023-05-20T18:58:17.961Z,4.60
2023-05-20T19:00:45.584Z,4.53
2023-05-20T19:03:13.141Z,4.70
2023-05-20T19:05:40.858Z,4.73
2023-05-20T19:08:09.389Z,4.50
2023-05-20T19:10:38.349Z,4.97
2023-05-20T19:13:05.991Z,5.00
2023-05-20T19:15:33.597Z,4.87
2023-05-20T19:18:01.361Z,5.37
2023-05-20T19:20:28.830Z,5.27
2023-05-20T19:22:56.415Z,4.87
2023-05-20T19:25:26.906Z,5.50
2023-05-20T19:27:56.466Z,4.83
2023-05-20T19:30:24.027Z,5.30
2023-05-20T19:32:51.572Z,4.93
2023-05-20T19:35:19.074Z,5.50
2023-05-20T19:37:46.632Z,5.50
2023-05-20T19:40:14.704Z,5.23
2023-05-20T19:42:42.264Z,4.97
2023-05-20T19:45:12.306Z,5.70
2023-05-20T19:47:40.057Z,5.30
2023-05-20T19:50:08.281Z,5.73
2023-05-20T19:52:35.853Z,5.37
2023-05-20T19:55:03.787Z,5.57
2023-05-20T19:57:31.910Z,5.50
2023-05-20T19:59:59.403Z,5.43
2023-05-20T20:02:28.319Z,5.70
2023-05-20T20:04:55.850Z,5.20
2023-05-20T20:07:23.769Z,5.13
2023-05-20T20:09:55.063Z,5.80
2023-05-20T20:12:22.696Z,5.90
2023-05-20T20:14:50.331Z,5.73
2023-05-20T20:17:17.942Z,5.47
2023-05-20T20:19:47.988Z,5.80
2023-05-20T20:22:15.802Z,6.27
2023-05-20T20:24:43.300Z,5.47
2023-05-20T20:27:13.240Z,5.50
2023-05-20T20:29:41.104Z,5.73
2023-05-20T20:32:08.877Z,5.67
2023-05-20T20:34:36.500Z,5.60
2023-05-20T20:37:06.872Z,6.00
2023-05-20T20:39:34.844Z,5.87
2023-05-20T20:42:03.009Z,6.00
2023-05-20T20:44:30.754Z,5.70
2023-05-20T20:46:58.467Z,6.40
2023-05-20T20:49:28.270Z,6.23
2023-05-20T20:51:56.044Z,6.20
2023-05-20T20:54:25.061Z,6.63
2023-05-20T20:56:52.516Z,6.23
2023-05-20T20:59:22.002Z,7.17
2023-05-20T21:01:49.533Z,6.40
2023-05-20T21:04:17.280Z,5.90
2023-05-20T21:06:45.937Z,6.70
2023-05-20T21:09:13.498Z,7.30
2023-05-20T21:11:43.250Z,7.13
2023-05-20T21:14:11.005Z,6.43
2023-05-20T21:16:39.067Z,6.20
2023-05-20T21:19:06.598Z,6.10
2023-05-20T21:21:34.099Z,6.07
2023-05-20T21:24:01.542Z,6.17
2023-05-20T21:26:28.953Z,6.20
2023-05-20T21:28:58.196Z,6.47
2023-05-20T21:31:25.865Z,6.63
2023-05-20T21:33:53.624Z,6.60
2023-05-20T21:36:22.166Z,6.50
2023-05-20T21:38:49.711Z,6.53
2023-05-20T21:41:17.211Z,6.40
2023-05-20T21:43:44.757Z,6.40
2023-05-20T21:46:13.912Z,6.50
2023-05-20T21:48:41.452Z,7.23
2023-05-20T21:51:08.916Z,6.60
2023-05-20T21:53:36.390Z,6.63
2023-05-20T21:56:04.234Z,6.43
2023-05-20T21:58:31.721Z,6.43
2023-05-20T22:00:59.308Z,6.63
2023-05-20T22:03:28.325Z,6.50
2023-05-20T22:05:56.147Z,6.37
2023-05-20T22:08:23.625Z,6.10
2023-05-20T22:10:51.061Z,6.40
2023-05-20T22:13:20.580Z,6.20
2023-05-20T22:15:48.149Z,6.07
2023-05-20T22:18:15.737Z,5.97
2023-05-20T22:20:44.593Z,6.40
2023-05-20T22:23:12.017Z,6.47
2023-05-20T22:25:39.538Z,5.90
2023-05-20T22:28:07.025Z,7.13
2023-05-20T22:30:35.340Z,6.40
2023-05-20T22:33:02.893Z,6.40
2023-05-20T22:35:30.626Z,6.87
2023-05-20T22:38:00.208Z,6.63
2023-05-20T22:40:28.257Z,6.10
2023-05-20T22:42:55.691Z,6.60
2023-05-20T22:45:23.176Z,6.57
2023-05-20T22:47:51.059Z,6.93
2023-05-20T22:50:18.571Z,7.03
2023-05-20T22:52:46.222Z,7.23
2023-05-20T22:55:15.061Z,6.97
2023-05-20T22:57:42.518Z,6.70
2023-05-20T23:00:10.887Z,7.00
2023-05-20T23:02:41.508Z,7.60
2023-05-20T23:05:09.340Z,6.87
2023-05-20T23:07:36.892Z,6.50
2023-05-20T23:10:04.558Z,6.50
2023-05-20T23:12:33.401Z,7.30
2023-05-20T23:15:01.226Z,6.83
2023-05-20T23:17:28.733Z,7.13
2023-05-20T23:19:56.428Z,7.10
2023-05-20T23:22:23.902Z,6.93
2023-05-20T23:24:51.509Z,6.97
2023-05-20T23:27:19.051Z,6.93
2023-05-20T23:29:48.159Z,6.93
2023-05-20T23:32:15.632Z,7.47
2023-05-20T23:34:43.464Z,7.07
2023-05-20T23:37:10.973Z,7.10
2023-05-20T23:39:38.556Z,7.00
2023-05-20T23:42:06.331Z,7.50
2023-05-20T23:44:33.794Z,6.50
2023-05-20T23:47:03.792Z,7.10
2023-05-20T23:49:32.097Z,6.93
2023-05-20T23:51:59.608Z,7.07
2023-05-20T23:54:27.785Z,7.00
2023-05-20T23:56:55.445Z,7.00
2023-05-20T23:59:22.910Z,7.40
